Terminal Aerodrome Forecast
Issued by NWS Springfield, MO

Home | Current Version | Previous Version | Text Only | Print | Product List | Glossary On
Versions: 1 2 3 4 5 6 7 8 9 10 11 12 13 14 15
000
FTUS43 KSGF 201720
TAFSGF
TAF
KSGF 201720Z 2018/2118 24006KT P6SM SCT050
     FM202300 19005KT P6SM SCT250
     FM210000 17007KT P6SM FEW250
     FM211400 20007KT P6SM FEW250=

USA.gov is the U.S. government's official web portal to all federal, state and local government web resources and services.